sensor_id;sensor_type;location;lat;lon;timestamp;temperature;humidity
41922;DHT22;27609;51.002;5.354;2022-09-09T00:04:35;15.30;99.90
41922;DHT22;27609;51.002;5.354;2022-09-09T00:07:07;15.30;99.90
41922;DHT22;27609;51.002;5.354;2022-09-09T00:09:46;15.30;99.90
41922;DHT22;27609;51.002;5.354;2022-09-09T00:15:07;15.40;99.90
41922;DHT22;27609;51.002;5.354;2022-09-09T00:22:57;15.80;99.90
41922;DHT22;27609;51.002;5.354;2022-09-09T00:25:56;15.80;99.90
41922;DHT22;27609;51.002;5.354;2022-09-09T00:28:24;15.70;99.90
41922;DHT22;27609;51.002;5.354;2022-09-09T00:30:51;15.80;99.90
41922;DHT22;27609;51.002;5.354;2022-09-09T00:33:28;15.90;99.90
41922;DHT22;27609;51.002;5.354;2022-09-09T00:35:57;15.90;99.90
41922;DHT22;27609;51.002;5.354;2022-09-09T00:41:09;16.00;99.90
41922;DHT22;27609;51.002;5.354;2022-09-09T00:43:38;15.80;99.90
41922;DHT22;27609;51.002;5.354;2022-09-09T00:48:50;15.70;99.90
41922;DHT22;27609;51.002;5.354;2022-09-09T00:51:28;15.50;99.90
41922;DHT22;27609;51.002;5.354;2022-09-09T00:56:37;15.10;99.90
41922;DHT22;27609;51.002;5.354;2022-09-09T01:01:36;15.20;99.90
41922;DHT22;27609;51.002;5.354;2022-09-09T01:04:06;15.10;99.90
41922;DHT22;27609;51.002;5.354;2022-09-09T01:06:36;15.00;99.90
41922;DHT22;27609;51.002;5.354;2022-09-09T01:11:50;15.10;99.90
41922;DHT22;27609;51.002;5.354;2022-09-09T01:22:25;15.00;99.90
41922;DHT22;27609;51.002;5.354;2022-09-09T01:25:13;15.10;99.90
41922;DHT22;27609;51.002;5.354;2022-09-09T01:27:46;15.20;99.90
41922;DHT22;27609;51.002;5.354;2022-09-09T01:30:14;15.20;99.90
41922;DHT22;27609;51.002;5.354;2022-09-09T01:32:45;15.20;99.90
41922;DHT22;27609;51.002;5.354;2022-09-09T01:35:32;15.10;99.90
41922;DHT22;27609;51.002;5.354;2022-09-09T01:38:00;15.00;99.90
41922;DHT22;27609;51.002;5.354;2022-09-09T01:40:26;14.90;99.90
41922;DHT22;27609;51.002;5.354;2022-09-09T01:42:52;14.80;99.90
41922;DHT22;27609;51.002;5.354;2022-09-09T01:45:19;14.80;99.90
41922;DHT22;27609;51.002;5.354;2022-09-09T01:47:45;14.70;99.90
41922;DHT22;27609;51.002;5.354;2022-09-09T01:50:15;14.70;99.90
41922;DHT22;27609;51.002;5.354;2022-09-09T01:52:42;14.70;99.90
41922;DHT22;27609;51.002;5.354;2022-09-09T01:55:09;14.70;99.90
41922;DHT22;27609;51.002;5.354;2022-09-09T02:00:12;14.70;99.90
41922;DHT22;27609;51.002;5.354;2022-09-09T02:08:04;14.70;99.90
41922;DHT22;27609;51.002;5.354;2022-09-09T02:13:19;14.70;99.90
41922;DHT22;27609;51.002;5.354;2022-09-09T02:15:57;14.70;99.90
41922;DHT22;27609;51.002;5.354;2022-09-09T02:18:35;14.70;99.90
41922;DHT22;27609;51.002;5.354;2022-09-09T02:21:03;14.70;99.90
41922;DHT22;27609;51.002;5.354;2022-09-09T02:23:30;14.70;99.90
41922;DHT22;27609;51.002;5.354;2022-09-09T02:25:58;14.80;99.90
41922;DHT22;27609;51.002;5.354;2022-09-09T02:28:26;14.80;99.90
41922;DHT22;27609;51.002;5.354;2022-09-09T02:30:53;14.80;99.90
41922;DHT22;27609;51.002;5.354;2022-09-09T02:33:23;14.80;99.90
41922;DHT22;27609;51.002;5.354;2022-09-09T02:35:51;14.80;99.90
41922;DHT22;27609;51.002;5.354;2022-09-09T02:38:20;14.80;99.90
41922;DHT22;27609;51.002;5.354;2022-09-09T02:40:46;14.70;99.90
41922;DHT22;27609;51.002;5.354;2022-09-09T02:43:14;14.80;99.90
41922;DHT22;27609;51.002;5.354;2022-09-09T02:48:30;14.70;99.90
41922;DHT22;27609;51.002;5.354;2022-09-09T02:51:15;14.70;99.90
41922;DHT22;27609;51.002;5.354;2022-09-09T02:53:50;14.70;99.90
41922;DHT22;27609;51.002;5.354;2022-09-09T02:56:23;14.70;99.90
41922;DHT22;27609;51.002;5.354;2022-09-09T02:58:51;14.80;99.90
41922;DHT22;27609;51.002;5.354;2022-09-09T03:01:17;14.70;99.90
41922;DHT22;27609;51.002;5.354;2022-09-09T03:03:43;14.70;99.90
41922;DHT22;27609;51.002;5.354;2022-09-09T03:06:09;14.70;99.90
41922;DHT22;27609;51.002;5.354;2022-09-09T03:08:37;14.80;99.90
41922;DHT22;27609;51.002;5.354;2022-09-09T03:11:03;14.80;99.90
41922;DHT22;27609;51.002;5.354;2022-09-09T03:13:29;14.70;99.90
41922;DHT22;27609;51.002;5.354;2022-09-09T03:15:55;14.70;99.90
41922;DHT22;27609;51.002;5.354;2022-09-09T03:18:20;14.70;99.90
41922;DHT22;27609;51.002;5.354;2022-09-09T03:20:46;14.70;99.90
41922;DHT22;27609;51.002;5.354;2022-09-09T03:23:16;14.70;99.90
41922;DHT22;27609;51.002;5.354;2022-09-09T03:25:48;14.70;99.90
41922;DHT22;27609;51.002;5.354;2022-09-09T03:28:14;14.80;99.90
41922;DHT22;27609;51.002;5.354;2022-09-09T03:30:40;14.90;99.90
41922;DHT22;27609;51.002;5.354;2022-09-09T03:33:06;14.90;99.90
41922;DHT22;27609;51.002;5.354;2022-09-09T03:35:34;14.90;99.90
41922;DHT22;27609;51.002;5.354;2022-09-09T03:37:59;15.00;99.90
41922;DHT22;27609;51.002;5.354;2022-09-09T03:40:26;15.10;99.90
41922;DHT22;27609;51.002;5.354;2022-09-09T03:42:51;15.10;99.90
41922;DHT22;27609;51.002;5.354;2022-09-09T03:45:17;15.20;99.90
41922;DHT22;27609;51.002;5.354;2022-09-09T03:47:45;15.20;99.90
41922;DHT22;27609;51.002;5.354;2022-09-09T03:50:11;15.20;99.90
41922;DHT22;27609;51.002;5.354;2022-09-09T03:52:38;15.20;99.90
41922;DHT22;27609;51.002;5.354;2022-09-09T03:55:06;15.20;99.90
41922;DHT22;27609;51.002;5.354;2022-09-09T03:57:32;15.20;99.90
41922;DHT22;27609;51.002;5.354;2022-09-09T04:00:04;15.20;99.90
41922;DHT22;27609;51.002;5.354;2022-09-09T04:02:31;15.20;99.90
41922;DHT22;27609;51.002;5.354;2022-09-09T04:04:57;15.20;99.90
41922;DHT22;27609;51.002;5.354;2022-09-09T04:07:22;15.20;99.90
41922;DHT22;27609;51.002;5.354;2022-09-09T04:09:48;15.20;99.90
41922;DHT22;27609;51.002;5.354;2022-09-09T04:12:14;15.20;99.90
41922;DHT22;27609;51.002;5.354;2022-09-09T04:14:39;15.20;99.90
41922;DHT22;27609;51.002;5.354;2022-09-09T04:17:05;15.10;99.90
41922;DHT22;27609;51.002;5.354;2022-09-09T04:19:32;15.10;99.90
41922;DHT22;27609;51.002;5.354;2022-09-09T04:21:58;15.00;99.90
41922;DHT22;27609;51.002;5.354;2022-09-09T04:24:24;15.00;99.90
41922;DHT22;27609;51.002;5.354;2022-09-09T04:26:50;14.90;99.90
41922;DHT22;27609;51.002;5.354;2022-09-09T04:29:16;14.90;99.90
41922;DHT22;27609;51.002;5.354;2022-09-09T04:31:44;14.90;99.90
41922;DHT22;27609;51.002;5.354;2022-09-09T04:34:10;14.80;99.90
41922;DHT22;27609;51.002;5.354;2022-09-09T04:36:35;14.80;99.90
41922;DHT22;27609;51.002;5.354;2022-09-09T04:39:02;14.80;99.90
41922;DHT22;27609;51.002;5.354;2022-09-09T04:41:28;14.80;99.90
41922;DHT22;27609;51.002;5.354;2022-09-09T04:43:54;14.80;99.90
41922;DHT22;27609;51.002;5.354;2022-09-09T04:46:20;14.90;99.90
41922;DHT22;27609;51.002;5.354;2022-09-09T04:48:48;14.80;99.90
41922;DHT22;27609;51.002;5.354;2022-09-09T04:51:14;14.90;99.90
41922;DHT22;27609;51.002;5.354;2022-09-09T04:53:40;14.80;99.90
41922;DHT22;27609;51.002;5.354;2022-09-09T04:56:12;14.80;99.90
41922;DHT22;27609;51.002;5.354;2022-09-09T04:58:38;14.80;99.90
41922;DHT22;27609;51.002;5.354;2022-09-09T05:01:06;14.80;99.90
41922;DHT22;27609;51.002;5.354;2022-09-09T05:03:32;14.80;99.90
41922;DHT22;27609;51.002;5.354;2022-09-09T05:06:08;14.90;99.90
41922;DHT22;27609;51.002;5.354;2022-09-09T05:08:39;14.80;99.90
41922;DHT22;27609;51.002;5.354;2022-09-09T05:11:19;14.90;99.90
41922;DHT22;27609;51.002;5.354;2022-09-09T05:13:47;14.80;99.90
41922;DHT22;27609;51.002;5.354;2022-09-09T05:16:13;14.90;99.90
41922;DHT22;27609;51.002;5.354;2022-09-09T05:18:40;14.80;99.90
41922;DHT22;27609;51.002;5.354;2022-09-09T05:21:06;14.80;99.90
41922;DHT22;27609;51.002;5.354;2022-09-09T05:23:33;14.80;99.90
41922;DHT22;27609;51.002;5.354;2022-09-09T05:25:59;14.80;99.90
41922;DHT22;27609;51.002;5.354;2022-09-09T05:28:26;14.80;99.90
41922;DHT22;27609;51.002;5.354;2022-09-09T05:30:57;14.90;99.90
41922;DHT22;27609;51.002;5.354;2022-09-09T05:33:23;15.00;99.90
41922;DHT22;27609;51.002;5.354;2022-09-09T05:35:58;15.00;99.90
41922;DHT22;27609;51.002;5.354;2022-09-09T05:38:24;15.10;99.90
41922;DHT22;27609;51.002;5.354;2022-09-09T05:40:52;15.10;99.90
41922;DHT22;27609;51.002;5.354;2022-09-09T05:43:19;15.20;99.90
41922;DHT22;27609;51.002;5.354;2022-09-09T05:45:46;15.20;99.90
41922;DHT22;27609;51.002;5.354;2022-09-09T05:48:16;15.20;99.90
41922;DHT22;27609;51.002;5.354;2022-09-09T05:50:54;15.30;99.90
41922;DHT22;27609;51.002;5.354;2022-09-09T05:53:20;15.30;99.90
41922;DHT22;27609;51.002;5.354;2022-09-09T05:55:46;15.40;99.90
41922;DHT22;27609;51.002;5.354;2022-09-09T05:58:13;15.30;99.90
41922;DHT22;27609;51.002;5.354;2022-09-09T06:00:42;15.50;99.90
41922;DHT22;27609;51.002;5.354;2022-09-09T06:03:11;15.50;99.90
41922;DHT22;27609;51.002;5.354;2022-09-09T06:05:37;15.50;99.90
41922;DHT22;27609;51.002;5.354;2022-09-09T06:08:03;15.50;99.90
41922;DHT22;27609;51.002;5.354;2022-09-09T06:10:28;15.50;99.90
41922;DHT22;27609;51.002;5.354;2022-09-09T06:12:54;15.60;99.90
41922;DHT22;27609;51.002;5.354;2022-09-09T06:15:20;15.60;99.90
41922;DHT22;27609;51.002;5.354;2022-09-09T06:17:46;15.60;99.90
41922;DHT22;27609;51.002;5.354;2022-09-09T06:20:11;15.70;99.90
41922;DHT22;27609;51.002;5.354;2022-09-09T06:22:41;15.70;99.90
41922;DHT22;27609;51.002;5.354;2022-09-09T06:25:09;15.80;99.90
41922;DHT22;27609;51.002;5.354;2022-09-09T06:27:37;15.80;99.90
41922;DHT22;27609;51.002;5.354;2022-09-09T06:30:03;15.80;99.90
41922;DHT22;27609;51.002;5.354;2022-09-09T06:32:31;15.90;99.90
41922;DHT22;27609;51.002;5.354;2022-09-09T06:35:00;15.90;99.90
41922;DHT22;27609;51.002;5.354;2022-09-09T06:37:26;16.00;99.90
41922;DHT22;27609;51.002;5.354;2022-09-09T06:39:52;15.90;99.90
41922;DHT22;27609;51.002;5.354;2022-09-09T06:42:20;16.10;99.90
41922;DHT22;27609;51.002;5.354;2022-09-09T06:44:45;16.60;99.90
41922;DHT22;27609;51.002;5.354;2022-09-09T06:47:11;17.00;99.90
41922;DHT22;27609;51.002;5.354;2022-09-09T06:49:36;17.10;99.90
41922;DHT22;27609;51.002;5.354;2022-09-09T06:52:02;17.10;99.90
41922;DHT22;27609;51.002;5.354;2022-09-09T06:54:28;17.50;99.90
41922;DHT22;27609;51.002;5.354;2022-09-09T06:56:58;18.00;99.90
41922;DHT22;27609;51.002;5.354;2022-09-09T06:59:25;18.40;99.90
41922;DHT22;27609;51.002;5.354;2022-09-09T07:01:53;18.10;99.90
41922;DHT22;27609;51.002;5.354;2022-09-09T07:04:19;17.60;99.90
41922;DHT22;27609;51.002;5.354;2022-09-09T07:06:48;17.40;99.90
41922;DHT22;27609;51.002;5.354;2022-09-09T07:09:15;17.10;99.90
41922;DHT22;27609;51.002;5.354;2022-09-09T07:11:46;17.10;99.90
41922;DHT22;27609;51.002;5.354;2022-09-09T07:14:14;17.00;99.90
41922;DHT22;27609;51.002;5.354;2022-09-09T07:16:44;16.90;99.90
41922;DHT22;27609;51.002;5.354;2022-09-09T07:19:10;16.70;99.90
41922;DHT22;27609;51.002;5.354;2022-09-09T07:21:39;16.80;99.90
41922;DHT22;27609;51.002;5.354;2022-09-09T07:24:08;16.90;99.90
41922;DHT22;27609;51.002;5.354;2022-09-09T07:26:36;17.00;99.90
41922;DHT22;27609;51.002;5.354;2022-09-09T07:29:02;16.90;99.90
41922;DHT22;27609;51.002;5.354;2022-09-09T07:31:30;16.90;99.90
41922;DHT22;27609;51.002;5.354;2022-09-09T07:33:57;17.00;99.90
41922;DHT22;27609;51.002;5.354;2022-09-09T07:36:25;17.00;99.90
41922;DHT22;27609;51.002;5.354;2022-09-09T07:39:05;17.00;99.90
41922;DHT22;27609;51.002;5.354;2022-09-09T07:41:34;17.00;99.90
41922;DHT22;27609;51.002;5.354;2022-09-09T07:44:04;17.30;99.90
41922;DHT22;27609;51.002;5.354;2022-09-09T07:46:30;17.50;99.90
41922;DHT22;27609;51.002;5.354;2022-09-09T07:48:56;17.50;99.90
41922;DHT22;27609;51.002;5.354;2022-09-09T07:51:44;17.40;99.90
41922;DHT22;27609;51.002;5.354;2022-09-09T07:54:13;17.50;99.90
41922;DHT22;27609;51.002;5.354;2022-09-09T07:56:43;17.50;99.90
41922;DHT22;27609;51.002;5.354;2022-09-09T07:59:12;17.50;99.90
41922;DHT22;27609;51.002;5.354;2022-09-09T08:01:42;17.40;99.90
41922;DHT22;27609;51.002;5.354;2022-09-09T08:04:14;17.30;99.90
41922;DHT22;27609;51.002;5.354;2022-09-09T08:06:55;17.20;99.90
41922;DHT22;27609;51.002;5.354;2022-09-09T08:09:21;17.10;99.90
41922;DHT22;27609;51.002;5.354;2022-09-09T08:11:50;17.10;99.90
41922;DHT22;27609;51.002;5.354;2022-09-09T08:14:16;17.10;99.90
41922;DHT22;27609;51.002;5.354;2022-09-09T08:16:44;17.00;99.90
41922;DHT22;27609;51.002;5.354;2022-09-09T08:19:12;17.10;99.90
41922;DHT22;27609;51.002;5.354;2022-09-09T08:21:41;17.00;99.90
41922;DHT22;27609;51.002;5.354;2022-09-09T08:24:08;16.90;99.90
41922;DHT22;27609;51.002;5.354;2022-09-09T08:26:44;16.90;99.90
41922;DHT22;27609;51.002;5.354;2022-09-09T08:29:11;16.90;99.90
41922;DHT22;27609;51.002;5.354;2022-09-09T08:31:42;16.90;99.90
41922;DHT22;27609;51.002;5.354;2022-09-09T08:34:08;16.90;99.90
41922;DHT22;27609;51.002;5.354;2022-09-09T08:36:37;16.90;99.90
41922;DHT22;27609;51.002;5.354;2022-09-09T08:39:05;16.90;99.90
41922;DHT22;27609;51.002;5.354;2022-09-09T08:50:25;17.10;99.90
41922;DHT22;27609;51.002;5.354;2022-09-09T08:55:25;17.00;99.90
41922;DHT22;27609;51.002;5.354;2022-09-09T08:57:54;16.90;99.90
41922;DHT22;27609;51.002;5.354;2022-09-09T09:00:22;16.80;99.90
41922;DHT22;27609;51.002;5.354;2022-09-09T09:03:09;16.70;99.90
41922;DHT22;27609;51.002;5.354;2022-09-09T09:05:57;16.70;99.90
41922;DHT22;27609;51.002;5.354;2022-09-09T09:10:53;16.70;99.90
41922;DHT22;27609;51.002;5.354;2022-09-09T09:13:47;16.70;99.90
41922;DHT22;27609;51.002;5.354;2022-09-09T09:16:39;16.80;99.90
41922;DHT22;27609;51.002;5.354;2022-09-09T09:19:13;16.90;99.90
41922;DHT22;27609;51.002;5.354;2022-09-09T09:21:45;16.80;99.90
41922;DHT22;27609;51.002;5.354;2022-09-09T09:24:29;16.90;99.90
41922;DHT22;27609;51.002;5.354;2022-09-09T09:27:07;16.90;99.90
41922;DHT22;27609;51.002;5.354;2022-09-09T09:29:38;16.90;99.90
41922;DHT22;27609;51.002;5.354;2022-09-09T09:32:07;17.00;99.90
41922;DHT22;27609;51.002;5.354;2022-09-09T09:34:38;17.20;99.90
41922;DHT22;27609;51.002;5.354;2022-09-09T09:37:16;17.30;99.90
41922;DHT22;27609;51.002;5.354;2022-09-09T09:39:46;17.40;99.90
41922;DHT22;27609;51.002;5.354;2022-09-09T09:42:16;17.40;99.90
41922;DHT22;27609;51.002;5.354;2022-09-09T09:44:43;17.30;99.90
41922;DHT22;27609;51.002;5.354;2022-09-09T09:47:16;17.30;99.90
41922;DHT22;27609;51.002;5.354;2022-09-09T09:49:55;17.30;99.90
41922;DHT22;27609;51.002;5.354;2022-09-09T09:52:26;17.50;99.90
41922;DHT22;27609;51.002;5.354;2022-09-09T09:54:54;17.50;99.90
41922;DHT22;27609;51.002;5.354;2022-09-09T09:57:29;17.50;99.90
41922;DHT22;27609;51.002;5.354;2022-09-09T10:00:16;17.60;99.90
41922;DHT22;27609;51.002;5.354;2022-09-09T10:02:44;17.60;99.90
41922;DHT22;27609;51.002;5.354;2022-09-09T10:05:19;17.60;99.90
41922;DHT22;27609;51.002;5.354;2022-09-09T10:07:57;17.40;99.90
41922;DHT22;27609;51.002;5.354;2022-09-09T10:10:33;16.90;99.90
41922;DHT22;27609;51.002;5.354;2022-09-09T10:13:11;16.40;99.90
41922;DHT22;27609;51.002;5.354;2022-09-09T10:15:51;16.10;99.90
41922;DHT22;27609;51.002;5.354;2022-09-09T10:21:03;15.90;99.90
41922;DHT22;27609;51.002;5.354;2022-09-09T10:26:44;15.80;99.90
41922;DHT22;27609;51.002;5.354;2022-09-09T10:40:22;15.80;99.90
41922;DHT22;27609;51.002;5.354;2022-09-09T10:42:53;15.70;99.90
41922;DHT22;27609;51.002;5.354;2022-09-09T10:48:18;15.50;99.90
41922;DHT22;27609;51.002;5.354;2022-09-09T10:56:29;15.70;99.90
41922;DHT22;27609;51.002;5.354;2022-09-09T10:59:17;15.80;99.90
41922;DHT22;27609;51.002;5.354;2022-09-09T11:02:02;16.10;99.90
41922;DHT22;27609;51.002;5.354;2022-09-09T11:04:33;16.10;99.90
41922;DHT22;27609;51.002;5.354;2022-09-09T11:07:05;16.20;99.90
41922;DHT22;27609;51.002;5.354;2022-09-09T11:09:37;16.40;99.90
41922;DHT22;27609;51.002;5.354;2022-09-09T11:12:05;16.60;99.90
41922;DHT22;27609;51.002;5.354;2022-09-09T11:14:44;16.80;99.90
41922;DHT22;27609;51.002;5.354;2022-09-09T11:17:15;16.60;99.90
41922;DHT22;27609;51.002;5.354;2022-09-09T11:19:45;16.60;99.90
41922;DHT22;27609;51.002;5.354;2022-09-09T11:22:31;16.60;99.90
41922;DHT22;27609;51.002;5.354;2022-09-09T11:25:10;16.50;99.90
41922;DHT22;27609;51.002;5.354;2022-09-09T11:28:04;16.50;99.90
41922;DHT22;27609;51.002;5.354;2022-09-09T11:31:13;16.70;99.90
41922;DHT22;27609;51.002;5.354;2022-09-09T11:34:17;16.70;99.90
41922;DHT22;27609;51.002;5.354;2022-09-09T11:44:41;17.20;99.90
41922;DHT22;27609;51.002;5.354;2022-09-09T11:47:29;17.30;99.90
41922;DHT22;27609;51.002;5.354;2022-09-09T11:50:07;17.10;99.90
41922;DHT22;27609;51.002;5.354;2022-09-09T11:52:47;17.10;99.90
41922;DHT22;27609;51.002;5.354;2022-09-09T11:55:30;17.20;99.90
41922;DHT22;27609;51.002;5.354;2022-09-09T11:58:04;17.20;99.90
41922;DHT22;27609;51.002;5.354;2022-09-09T12:00:40;17.30;99.90
41922;DHT22;27609;51.002;5.354;2022-09-09T12:03:46;17.30;99.90
41922;DHT22;27609;51.002;5.354;2022-09-09T12:06:31;17.20;99.90
41922;DHT22;27609;51.002;5.354;2022-09-09T12:09:08;17.20;99.90
41922;DHT22;27609;51.002;5.354;2022-09-09T12:11:36;17.20;99.90
41922;DHT22;27609;51.002;5.354;2022-09-09T12:14:02;17.10;99.90
41922;DHT22;27609;51.002;5.354;2022-09-09T12:16:33;17.00;99.90
41922;DHT22;27609;51.002;5.354;2022-09-09T12:19:12;17.00;99.90
41922;DHT22;27609;51.002;5.354;2022-09-09T12:21:56;17.10;99.90
41922;DHT22;27609;51.002;5.354;2022-09-09T12:24:43;17.40;99.90
41922;DHT22;27609;51.002;5.354;2022-09-09T12:27:28;17.50;99.90
41922;DHT22;27609;51.002;5.354;2022-09-09T12:30:15;17.50;99.90
41922;DHT22;27609;51.002;5.354;2022-09-09T12:32:41;17.40;99.90
41922;DHT22;27609;51.002;5.354;2022-09-09T12:35:22;17.30;99.90
41922;DHT22;27609;51.002;5.354;2022-09-09T12:37:54;17.80;99.90
41922;DHT22;27609;51.002;5.354;2022-09-09T12:40:24;18.60;99.90
41922;DHT22;27609;51.002;5.354;2022-09-09T12:42:49;19.30;99.90
41922;DHT22;27609;51.002;5.354;2022-09-09T12:45:21;20.10;99.90
41922;DHT22;27609;51.002;5.354;2022-09-09T12:47:48;19.80;99.90
41922;DHT22;27609;51.002;5.354;2022-09-09T12:50:24;20.60;99.90
41922;DHT22;27609;51.002;5.354;2022-09-09T12:52:56;20.70;99.90
41922;DHT22;27609;51.002;5.354;2022-09-09T12:55:35;21.50;99.90
41922;DHT22;27609;51.002;5.354;2022-09-09T12:58:03;21.10;99.90
41922;DHT22;27609;51.002;5.354;2022-09-09T13:00:31;20.70;99.90
41922;DHT22;27609;51.002;5.354;2022-09-09T13:02:58;20.90;99.90
41922;DHT22;27609;51.002;5.354;2022-09-09T13:05:25;20.60;99.90
41922;DHT22;27609;51.002;5.354;2022-09-09T13:07:59;20.00;99.90
41922;DHT22;27609;51.002;5.354;2022-09-09T13:10:29;19.60;99.90
41922;DHT22;27609;51.002;5.354;2022-09-09T13:12:55;19.70;99.90
41922;DHT22;27609;51.002;5.354;2022-09-09T13:15:23;19.90;99.90
41922;DHT22;27609;51.002;5.354;2022-09-09T13:17:59;19.80;99.90
41922;DHT22;27609;51.002;5.354;2022-09-09T13:20:27;19.70;99.90
41922;DHT22;27609;51.002;5.354;2022-09-09T13:22:54;19.90;99.90
41922;DHT22;27609;51.002;5.354;2022-09-09T13:25:26;19.60;99.90
41922;DHT22;27609;51.002;5.354;2022-09-09T13:27:56;19.20;99.90
41922;DHT22;27609;51.002;5.354;2022-09-09T13:30:26;19.50;99.90
41922;DHT22;27609;51.002;5.354;2022-09-09T13:35:36;19.30;99.90
41922;DHT22;27609;51.002;5.354;2022-09-09T13:38:14;19.20;99.90
41922;DHT22;27609;51.002;5.354;2022-09-09T13:40:39;19.30;99.90
41922;DHT22;27609;51.002;5.354;2022-09-09T13:43:15;19.30;99.90
41922;DHT22;27609;51.002;5.354;2022-09-09T13:45:53;19.30;99.90
41922;DHT22;27609;51.002;5.354;2022-09-09T13:48:19;19.30;99.90
41922;DHT22;27609;51.002;5.354;2022-09-09T13:51:03;19.60;99.90
41922;DHT22;27609;51.002;5.354;2022-09-09T13:53:32;19.50;99.90
41922;DHT22;27609;51.002;5.354;2022-09-09T13:55:58;19.60;99.90
41922;DHT22;27609;51.002;5.354;2022-09-09T13:58:25;19.40;99.90
41922;DHT22;27609;51.002;5.354;2022-09-09T14:00:52;19.30;99.90
41922;DHT22;27609;51.002;5.354;2022-09-09T14:03:18;19.70;99.90
41922;DHT22;27609;51.002;5.354;2022-09-09T14:05:45;20.70;99.90
41922;DHT22;27609;51.002;5.354;2022-09-09T14:08:25;20.80;99.90
41922;DHT22;27609;51.002;5.354;2022-09-09T14:10:51;20.60;99.90
41922;DHT22;27609;51.002;5.354;2022-09-09T14:13:17;20.40;99.90
41922;DHT22;27609;51.002;5.354;2022-09-09T14:15:43;20.50;99.90
41922;DHT22;27609;51.002;5.354;2022-09-09T14:18:12;20.40;99.90
41922;DHT22;27609;51.002;5.354;2022-09-09T14:20:38;20.30;99.90
41922;DHT22;27609;51.002;5.354;2022-09-09T14:23:04;20.10;99.90
41922;DHT22;27609;51.002;5.354;2022-09-09T14:25:30;20.10;99.90
41922;DHT22;27609;51.002;5.354;2022-09-09T14:27:56;20.20;99.90
41922;DHT22;27609;51.002;5.354;2022-09-09T14:30:22;20.30;99.90
41922;DHT22;27609;51.002;5.354;2022-09-09T14:32:47;20.40;99.90
41922;DHT22;27609;51.002;5.354;2022-09-09T14:35:13;20.20;99.90
41922;DHT22;27609;51.002;5.354;2022-09-09T14:37:39;20.10;99.90
41922;DHT22;27609;51.002;5.354;2022-09-09T14:40:05;20.00;99.90
41922;DHT22;27609;51.002;5.354;2022-09-09T14:42:30;20.50;99.90
41922;DHT22;27609;51.002;5.354;2022-09-09T14:44:56;20.70;99.90
41922;DHT22;27609;51.002;5.354;2022-09-09T14:47:22;20.60;99.90
41922;DHT22;27609;51.002;5.354;2022-09-09T14:49:47;21.10;99.90
41922;DHT22;27609;51.002;5.354;2022-09-09T14:52:15;21.30;99.90
41922;DHT22;27609;51.002;5.354;2022-09-09T14:54:41;21.10;99.90
41922;DHT22;27609;51.002;5.354;2022-09-09T14:57:07;21.10;99.90
41922;DHT22;27609;51.002;5.354;2022-09-09T14:59:33;21.10;99.90
41922;DHT22;27609;51.002;5.354;2022-09-09T15:01:59;21.40;99.90
41922;DHT22;27609;51.002;5.354;2022-09-09T15:04:29;21.30;99.90
41922;DHT22;27609;51.002;5.354;2022-09-09T15:06:55;21.30;99.90
41922;DHT22;27609;51.002;5.354;2022-09-09T15:09:20;21.30;99.90
41922;DHT22;27609;51.002;5.354;2022-09-09T15:11:46;21.40;99.90
41922;DHT22;27609;51.002;5.354;2022-09-09T15:14:12;21.40;99.90
41922;DHT22;27609;51.002;5.354;2022-09-09T15:16:39;21.30;99.90
41922;DHT22;27609;51.002;5.354;2022-09-09T15:19:05;21.00;99.90
41922;DHT22;27609;51.002;5.354;2022-09-09T15:21:33;20.70;99.90
41922;DHT22;27609;51.002;5.354;2022-09-09T15:23:59;20.60;99.90
41922;DHT22;27609;51.002;5.354;2022-09-09T15:26:25;20.40;99.90
41922;DHT22;27609;51.002;5.354;2022-09-09T15:28:51;20.10;99.90
41922;DHT22;27609;51.002;5.354;2022-09-09T15:31:18;20.10;99.90
41922;DHT22;27609;51.002;5.354;2022-09-09T15:36:22;20.40;99.90
41922;DHT22;27609;51.002;5.354;2022-09-09T15:38:48;20.60;99.90
41922;DHT22;27609;51.002;5.354;2022-09-09T15:41:15;20.50;99.90
41922;DHT22;27609;51.002;5.354;2022-09-09T15:43:50;20.40;99.90
41922;DHT22;27609;51.002;5.354;2022-09-09T15:48:43;20.40;99.90
41922;DHT22;27609;51.002;5.354;2022-09-09T15:51:14;20.60;99.90
41922;DHT22;27609;51.002;5.354;2022-09-09T15:53:40;20.80;99.90
41922;DHT22;27609;51.002;5.354;2022-09-09T15:56:08;20.90;99.90
41922;DHT22;27609;51.002;5.354;2022-09-09T15:58:35;20.80;99.90
41922;DHT22;27609;51.002;5.354;2022-09-09T16:01:05;20.90;99.90
41922;DHT22;27609;51.002;5.354;2022-09-09T16:03:36;21.10;99.90
41922;DHT22;27609;51.002;5.354;2022-09-09T16:06:03;20.80;99.90
41922;DHT22;27609;51.002;5.354;2022-09-09T16:08:41;20.60;99.90
41922;DHT22;27609;51.002;5.354;2022-09-09T16:11:13;20.40;99.90
41922;DHT22;27609;51.002;5.354;2022-09-09T16:13:43;20.40;99.90
41922;DHT22;27609;51.002;5.354;2022-09-09T16:16:13;20.40;99.90
41922;DHT22;27609;51.002;5.354;2022-09-09T16:18:42;20.40;99.90
41922;DHT22;27609;51.002;5.354;2022-09-09T16:21:11;20.30;99.90
41922;DHT22;27609;51.002;5.354;2022-09-09T16:23:38;20.20;99.90
41922;DHT22;27609;51.002;5.354;2022-09-09T16:26:04;20.10;99.90
41922;DHT22;27609;51.002;5.354;2022-09-09T16:28:30;20.00;99.90
41922;DHT22;27609;51.002;5.354;2022-09-09T16:30:56;20.00;99.90
41922;DHT22;27609;51.002;5.354;2022-09-09T16:33:24;20.10;99.90
41922;DHT22;27609;51.002;5.354;2022-09-09T16:35:51;20.00;99.90
41922;DHT22;27609;51.002;5.354;2022-09-09T16:38:17;19.80;99.90
41922;DHT22;27609;51.002;5.354;2022-09-09T16:40:42;19.70;99.90
41922;DHT22;27609;51.002;5.354;2022-09-09T16:43:08;19.60;99.90
41922;DHT22;27609;51.002;5.354;2022-09-09T16:45:44;19.50;99.90
41922;DHT22;27609;51.002;5.354;2022-09-09T16:48:11;19.50;99.90
41922;DHT22;27609;51.002;5.354;2022-09-09T16:50:37;19.40;99.90
41922;DHT22;27609;51.002;5.354;2022-09-09T16:53:04;19.30;99.90
41922;DHT22;27609;51.002;5.354;2022-09-09T16:55:40;19.30;99.90
41922;DHT22;27609;51.002;5.354;2022-09-09T16:58:07;19.30;99.90
41922;DHT22;27609;51.002;5.354;2022-09-09T17:00:34;19.30;99.90
41922;DHT22;27609;51.002;5.354;2022-09-09T17:03:00;19.20;99.90
41922;DHT22;27609;51.002;5.354;2022-09-09T17:05:25;19.10;99.90
41922;DHT22;27609;51.002;5.354;2022-09-09T17:07:51;19.10;99.90
41922;DHT22;27609;51.002;5.354;2022-09-09T17:10:17;19.00;99.90
41922;DHT22;27609;51.002;5.354;2022-09-09T17:12:42;18.90;99.90
41922;DHT22;27609;51.002;5.354;2022-09-09T17:15:08;18.90;99.90
41922;DHT22;27609;51.002;5.354;2022-09-09T17:17:35;18.80;99.90
41922;DHT22;27609;51.002;5.354;2022-09-09T17:20:01;18.80;99.90
41922;DHT22;27609;51.002;5.354;2022-09-09T17:22:27;18.80;99.90
41922;DHT22;27609;51.002;5.354;2022-09-09T17:24:54;18.80;99.90
41922;DHT22;27609;51.002;5.354;2022-09-09T17:27:20;18.80;99.90
41922;DHT22;27609;51.002;5.354;2022-09-09T17:29:45;18.80;99.90